Wetterdaten: Woche 02.05.16 - 08.05.16 (KW18)
Datum Zeit Temperatur Luftfeuchte Luftdruck Niederschlag Windrichtung Sonnenschein Solar Wind
02.05.2016 00:00 7,6 C 99 % 1020,2 hPa 0,0 l/m N 0,00 h 0 W/m 2,9 km/h (1 Bft)
02.05.2016 01:00 7,5 C 99 % 1019,9 hPa 0,0 l/m N-NO 0,00 h 0 W/m 2,8 km/h (1 Bft)
02.05.2016 02:00 7,3 C 98 % 1019,9 hPa 0,0 l/m N-NO 0,00 h 0 W/m 2,7 km/h (1 Bft)
02.05.2016 03:00 7,1 C 99 % 1019,9 hPa 0,0 l/m N 0,00 h 0 W/m 2,7 km/h (1 Bft)
02.05.2016 04:00 7,0 C 98 % 1020,0 hPa 0,0 l/m NO 0,00 h 0 W/m 5,9 km/h (2 Bft)
02.05.2016 05:00 6,4 C 98 % 1020,2 hPa 0,0 l/m N 0,00 h 0 W/m 0,9 km/h (0 Bft)
02.05.2016 06:00 5,6 C 98 % 1020,6 hPa 0,0 l/m N 0,00 h 18 W/m 0,3 km/h (0 Bft)
02.05.2016 07:00 6,3 C 98 % 1020,9 hPa 0,0 l/m NO 0,17 h 99 W/m 3,1 km/h (1 Bft)
02.05.2016 08:00 8,0 C 91 % 1021,1 hPa 0,0 l/m NO 1,00 h 256 W/m 8,7 km/h (2 Bft)
02.05.2016 09:00 9,3 C 83 % 1021,0 hPa 0,0 l/m O-NO 0,92 h 386 W/m 12,4 km/h (3 Bft)
02.05.2016 10:00 10,3 C 79 % 1021,0 hPa 0,0 l/m N-NO 0,58 h 492 W/m 9,9 km/h (2 Bft)
02.05.2016 11:00 12,0 C 72 % 1020,7 hPa 0,0 l/m NO 0,92 h 716 W/m 12,8 km/h (3 Bft)
02.05.2016 12:00 14,1 C 65 % 1020,2 hPa 0,0 l/m O-NO 0,92 h 824 W/m 13,8 km/h (3 Bft)
02.05.2016 13:00 15,1 C 61 % 1019,6 hPa 0,0 l/m NO 0,67 h 721 W/m 14,9 km/h (3 Bft)
02.05.2016 14:00 15,7 C 55 % 1019,2 hPa 0,0 l/m O 0,58 h 582 W/m 12,2 km/h (2 Bft)
02.05.2016 15:00 15,8 C 52 % 1018,7 hPa 0,0 l/m N-NO 0,42 h 503 W/m 10,1 km/h (2 Bft)
02.05.2016 16:00 16,3 C 46 % 1018,3 hPa 0,0 l/m NO 0,58 h 455 W/m 11,7 km/h (2 Bft)
02.05.2016 17:00 16,7 C 41 % 1018,0 hPa 0,0 l/m NO 1,00 h 499 W/m 9,5 km/h (2 Bft)
02.05.2016 18:00 16,7 C 41 % 1017,8 hPa 0,0 l/m NO 1,00 h 327 W/m 7,9 km/h (2 Bft)
02.05.2016 19:00 14,8 C 61 % 1017,7 hPa 0,0 l/m NO 0,50 h 106 W/m 8,7 km/h (2 Bft)
02.05.2016 20:00 11,5 C 82 % 1017,9 hPa 0,0 l/m SW 0,08 h 12 W/m 8,3 km/h (2 Bft)
02.05.2016 21:00 10,2 C 86 % 1018,2 hPa 0,0 l/m SW 0,00 h 0 W/m 8,0 km/h (2 Bft)
02.05.2016 22:00 9,4 C 89 % 1018,2 hPa 0,0 l/m SW 0,00 h 0 W/m 7,1 km/h (2 Bft)
02.05.2016 23:00 8,3 C 92 % 1018,2 hPa 0,0 l/m N 0,00 h 0 W/m 0,0 km/h (0 Bft)
03.05.2016 00:00 7,1 C 94 % 1018,3 hPa 0,0 l/m N 0,00 h 0 W/m 0,0 km/h (0 Bft)
03.05.2016 01:00 6,0 C 96 % 1018,4 hPa 0,0 l/m N 0,00 h 0 W/m 0,0 km/h (0 Bft)
03.05.2016 02:00 5,3 C 97 % 1018,0 hPa 0,0 l/m N 0,00 h 0 W/m 0,0 km/h (0 Bft)
03.05.2016 03:00 4,7 C 98 % 1017,6 hPa 0,0 l/m N 0,00 h 0 W/m 0,0 km/h (0 Bft)
03.05.2016 04:00 4,7 C 98 % 1017,7 hPa 0,0 l/m N 0,00 h 0 W/m 0,0 km/h (0 Bft)
03.05.2016 05:00 4,5 C 98 % 1017,7 hPa 0,0 l/m N 0,00 h 0 W/m 0,0 km/h (0 Bft)
03.05.2016 06:00 4,4 C 99 % 1017,8 hPa 0,0 l/m N 0,00 h 18 W/m 0,0 km/h (0 Bft)
03.05.2016 07:00 5,2 C 99 % 1018,0 hPa 0,0 l/m S-SW 0,00 h 68 W/m 1,2 km/h (1 Bft)
03.05.2016 08:00 7,0 C 100 % 1018,3 hPa 0,0 l/m S-SW 0,33 h 181 W/m 9,4 km/h (2 Bft)
03.05.2016 09:00 10,8 C 93 % 1018,1 hPa 0,0 l/m SW 1,00 h 481 W/m 11,2 km/h (2 Bft)
03.05.2016 10:00 12,1 C 85 % 1018,0 hPa 0,0 l/m S-SW 1,00 h 569 W/m 14,4 km/h (3 Bft)
03.05.2016 11:00 13,4 C 80 % 1017,7 hPa 0,0 l/m S-SW 0,42 h 355 W/m 18,8 km/h (3 Bft)
03.05.2016 12:00 12,7 C 77 % 1017,4 hPa 0,0 l/m SW 0,17 h 357 W/m 15,2 km/h (3 Bft)
03.05.2016 13:00 13,9 C 67 % 1016,8 hPa 0,0 l/m W-SW 0,33 h 407 W/m 18,1 km/h (3 Bft)
03.05.2016 14:00 12,7 C 71 % 1017,0 hPa 0,0 l/m SW 0,08 h 187 W/m 20,5 km/h (4 Bft)
03.05.2016 15:00 11,3 C 75 % 1018,1 hPa 0,2 l/m N-NW 0,00 h 166 W/m 23,2 km/h (4 Bft)
03.05.2016 16:00 10,0 C 79 % 1019,1 hPa 0,2 l/m N 0,00 h 117 W/m 20,5 km/h (4 Bft)
03.05.2016 17:00 8,9 C 90 % 1019,6 hPa 0,2 l/m N 0,00 h 108 W/m 8,6 km/h (2 Bft)
03.05.2016 18:00 9,1 C 82 % 1020,1 hPa 0,0 l/m N-NW 0,00 h 49 W/m 17,4 km/h (3 Bft)
03.05.2016 19:00 9,3 C 73 % 1020,8 hPa 0,0 l/m N-NW 0,50 h 134 W/m 15,6 km/h (3 Bft)
03.05.2016 20:00 8,1 C 79 % 1022,0 hPa 0,0 l/m N-NW 0,00 h 11 W/m 4,7 km/h (1 Bft)
03.05.2016 21:00 6,8 C 90 % 1023,2 hPa 0,8 l/m N-NO 0,00 h 0 W/m 4,7 km/h (1 Bft)
03.05.2016 22:00 6,4 C 95 % 1023,8 hPa 0,0 l/m N 0,00 h 0 W/m 0,0 km/h (0 Bft)
03.05.2016 23:00 6,3 C 95 % 1024,3 hPa 0,0 l/m N 0,00 h 0 W/m 0,0 km/h (0 Bft)
04.05.2016 00:00 5,5 C 96 % 1024,5 hPa 0,0 l/m N 0,00 h 0 W/m 0,0 km/h (0 Bft)
04.05.2016 01:00 4,2 C 97 % 1024,8 hPa 0,0 l/m N 0,00 h 0 W/m 0,0 km/h (0 Bft)
04.05.2016 02:00 3,6 C 97 % 1024,9 hPa 0,0 l/m N 0,00 h 0 W/m 0,0 km/h (0 Bft)
04.05.2016 03:00 3,3 C 98 % 1025,1 hPa 0,0 l/m N 0,00 h 0 W/m 0,0 km/h (0 Bft)
04.05.2016 04:00 2,6 C 98 % 1025,2 hPa 0,2 l/m N 0,00 h 0 W/m 0,0 km/h (0 Bft)
04.05.2016 05:00 2,2 C 98 % 1025,4 hPa 0,0 l/m N 0,00 h 0 W/m 0,0 km/h (0 Bft)
04.05.2016 06:00 2,2 C 98 % 1025,7 hPa 0,0 l/m N 0,00 h 27 W/m 0,0 km/h (0 Bft)
04.05.2016 07:00 4,0 C 99 % 1026,0 hPa 0,0 l/m N 0,75 h 170 W/m 0,0 km/h (0 Bft)
04.05.2016 08:00 7,5 C 92 % 1026,0 hPa 0,0 l/m NO 0,83 h 305 W/m 6,8 km/h (2 Bft)
04.05.2016 09:00 9,0 C 77 % 1026,0 hPa 0,0 l/m O 0,92 h 468 W/m 13,2 km/h (3 Bft)
04.05.2016 10:00 9,6 C 71 % 1025,9 hPa 0,0 l/m O-NO 0,50 h 421 W/m 12,0 km/h (2 Bft)
04.05.2016 11:00 11,4 C 60 % 1025,8 hPa 0,0 l/m O 1,00 h 820 W/m 15,3 km/h (3 Bft)
04.05.2016 12:00 12,0 C 54 % 1025,5 hPa 0,0 l/m O-NO 0,33 h 424 W/m 12,2 km/h (2 Bft)
04.05.2016 13:00 11,7 C 53 % 1025,2 hPa 0,0 l/m O-SO 0,25 h 361 W/m 9,0 km/h (2 Bft)
04.05.2016 14:00 12,7 C 49 % 1024,9 hPa 0,0 l/m O-NO 0,17 h 368 W/m 10,5 km/h (2 Bft)
04.05.2016 15:00 13,5 C 44 % 1024,4 hPa 0,0 l/m O 0,50 h 587 W/m 10,3 km/h (2 Bft)
04.05.2016 16:00 13,9 C 42 % 1024,0 hPa 0,0 l/m O-SO 0,52 h 485 W/m 13,3 km/h (3 Bft)
04.05.2016 17:00 13,7 C 41 % 1023,9 hPa 0,0 l/m O 0,42 h 272 W/m 11,4 km/h (2 Bft)
04.05.2016 18:00 12,5 C 43 % 1023,8 hPa 0,0 l/m O 0,17 h 148 W/m 11,7 km/h (2 Bft)
04.05.2016 19:00 12,4 C 43 % 1023,7 hPa 0,0 l/m O 0,58 h 125 W/m 12,6 km/h (3 Bft)
04.05.2016 20:00 11,0 C 50 % 1023,9 hPa 0,0 l/m O 0,00 h 10 W/m 6,4 km/h (2 Bft)
04.05.2016 21:00 10,4 C 52 % 1024,3 hPa 0,0 l/m O-NO 0,00 h 0 W/m 6,2 km/h (2 Bft)
04.05.2016 22:00 9,1 C 56 % 1024,4 hPa 0,0 l/m N 0,00 h 0 W/m 3,1 km/h (1 Bft)
04.05.2016 23:00 7,1 C 61 % 1024,3 hPa 0,0 l/m N 0,00 h 0 W/m 1,7 km/h (1 Bft)
05.05.2016 00:00 5,3 C 69 % 1023,8 hPa 0,0 l/m N 0,00 h 0 W/m 0,3 km/h (0 Bft)
05.05.2016 01:00 4,2 C 74 % 1023,7 hPa 0,0 l/m N 0,00 h 0 W/m 0,1 km/h (0 Bft)
05.05.2016 02:00 3,6 C 77 % 1023,5 hPa 0,0 l/m N 0,00 h 0 W/m 0,1 km/h (0 Bft)
05.05.2016 03:00 2,9 C 81 % 1023,4 hPa 0,0 l/m O-NO 0,00 h 0 W/m 3,3 km/h (1 Bft)
05.05.2016 04:00 2,4 C 83 % 1023,3 hPa 0,0 l/m O-NO 0,00 h 0 W/m 3,1 km/h (1 Bft)
05.05.2016 05:00 2,3 C 87 % 1023,3 hPa 0,0 l/m O-NO 0,00 h 0 W/m 3,5 km/h (1 Bft)
05.05.2016 06:00 2,1 C 90 % 1023,2 hPa 0,0 l/m O-NO 0,00 h 22 W/m 3,6 km/h (1 Bft)
05.05.2016 07:00 4,2 C 87 % 1022,9 hPa 0,0 l/m NO 0,58 h 144 W/m 10,2 km/h (2 Bft)
05.05.2016 08:00 6,3 C 81 % 1022,4 hPa 0,0 l/m O-NO 1,00 h 325 W/m 17,0 km/h (3 Bft)
05.05.2016 09:00 9,0 C 70 % 1021,8 hPa 0,0 l/m O 1,00 h 498 W/m 23,4 km/h (4 Bft)
05.05.2016 10:00 10,7 C 62 % 1021,4 hPa 0,0 l/m O 1,00 h 649 W/m 28,3 km/h (4 Bft)
05.05.2016 11:00 12,5 C 57 % 1021,1 hPa 0,0 l/m O-SO 1,00 h 770 W/m 30,1 km/h (5 Bft)
05.05.2016 12:00 13,9 C 54 % 1020,8 hPa 0,0 l/m O-SO 1,00 h 846 W/m 29,1 km/h (5 Bft)
05.05.2016 13:00 15,5 C 51 % 1020,0 hPa 0,0 l/m O-SO 1,00 h 875 W/m 26,4 km/h (4 Bft)
05.05.2016 14:00 16,4 C 48 % 1019,4 hPa 0,0 l/m SO 1,00 h 851 W/m 25,6 km/h (4 Bft)
05.05.2016 15:00 17,2 C 47 % 1018,8 hPa 0,0 l/m O 1,00 h 777 W/m 23,6 km/h (4 Bft)
05.05.2016 16:00 17,6 C 46 % 1018,3 hPa 0,0 l/m O-SO 1,00 h 664 W/m 22,2 km/h (4 Bft)
05.05.2016 17:00 17,6 C 49 % 1017,8 hPa 0,0 l/m O-SO 1,00 h 512 W/m 21,7 km/h (4 Bft)
05.05.2016 18:00 17,1 C 53 % 1017,4 hPa 0,0 l/m O-NO 1,00 h 338 W/m 20,4 km/h (4 Bft)
05.05.2016 19:00 15,9 C 58 % 1017,1 hPa 0,0 l/m O 0,50 h 113 W/m 16,4 km/h (3 Bft)
05.05.2016 20:00 14,1 C 64 % 1016,9 hPa 0,0 l/m O-NO 0,00 h 12 W/m 9,8 km/h (2 Bft)
05.05.2016 21:00 12,4 C 72 % 1017,0 hPa 0,0 l/m NO 0,00 h 0 W/m 7,0 km/h (2 Bft)
05.05.2016 22:00 11,2 C 77 % 1016,8 hPa 0,0 l/m NO 0,00 h 0 W/m 7,5 km/h (2 Bft)
05.05.2016 23:00 10,0 C 82 % 1016,6 hPa 0,0 l/m NO 0,00 h 0 W/m 6,4 km/h (2 Bft)
06.05.2016 00:00 8,9 C 86 % 1016,2 hPa 0,0 l/m NO 0,00 h 0 W/m 4,1 km/h (1 Bft)
06.05.2016 01:00 7,9 C 90 % 1016,2 hPa 0,0 l/m N-NO 0,00 h 0 W/m 4,3 km/h (1 Bft)
06.05.2016 02:00 7,1 C 93 % 1016,1 hPa 0,0 l/m N-NO 0,00 h 0 W/m 1,7 km/h (1 Bft)
06.05.2016 03:00 6,5 C 94 % 1015,9 hPa 0,0 l/m N 0,00 h 0 W/m 1,7 km/h (1 Bft)
06.05.2016 04:00 6,0 C 95 % 1015,6 hPa 0,0 l/m N 0,00 h 0 W/m 0,5 km/h (0 Bft)
06.05.2016 05:00 5,5 C 96 % 1015,5 hPa 0,0 l/m N-NO 0,00 h 5 W/m 0,8 km/h (0 Bft)
06.05.2016 06:00 5,4 C 97 % 1015,6 hPa 0,0 l/m N-NO 0,00 h 19 W/m 1,2 km/h (1 Bft)
06.05.2016 07:00 5,8 C 98 % 1016,0 hPa 0,0 l/m N-NO 0,00 h 56 W/m 1,5 km/h (1 Bft)
06.05.2016 08:00 6,4 C 99 % 1016,2 hPa 0,0 l/m N-NO 0,00 h 115 W/m 2,8 km/h (1 Bft)
06.05.2016 09:00 8,3 C 97 % 1016,0 hPa 0,0 l/m N-NO 0,75 h 407 W/m 7,5 km/h (2 Bft)
06.05.2016 10:00 11,5 C 86 % 1015,7 hPa 0,0 l/m N-NO 1,00 h 659 W/m 5,1 km/h (1 Bft)
06.05.2016 11:00 15,3 C 67 % 1015,2 hPa 0,0 l/m N-NO 1,00 h 779 W/m 3,9 km/h (1 Bft)
06.05.2016 12:00 18,3 C 45 % 1014,7 hPa 0,0 l/m O-NO 1,00 h 866 W/m 7,1 km/h (2 Bft)
06.05.2016 13:00 20,0 C 37 % 1013,8 hPa 0,0 l/m O-SO 1,00 h 890 W/m 9,1 km/h (2 Bft)
06.05.2016 14:00 20,9 C 36 % 1013,0 hPa 0,0 l/m O-NO 1,00 h 856 W/m 10,4 km/h (2 Bft)
06.05.2016 15:00 21,8 C 37 % 1012,3 hPa 0,0 l/m O 1,00 h 763 W/m 13,3 km/h (3 Bft)
06.05.2016 16:00 22,0 C 35 % 1011,5 hPa 0,0 l/m N-NO 1,00 h 663 W/m 11,1 km/h (2 Bft)
06.05.2016 17:00 22,3 C 33 % 1011,0 hPa 0,0 l/m O 1,00 h 508 W/m 12,0 km/h (2 Bft)
06.05.2016 18:00 21,7 C 35 % 1010,7 hPa 0,0 l/m O 1,00 h 337 W/m 12,2 km/h (2 Bft)
06.05.2016 19:00 20,4 C 39 % 1010,5 hPa 0,0 l/m O-SO 0,58 h 114 W/m 10,7 km/h (2 Bft)
06.05.2016 20:00 17,6 C 49 % 1010,5 hPa 0,0 l/m N 0,00 h 12 W/m 0,8 km/h (0 Bft)
06.05.2016 21:00 14,4 C 58 % 1010,7 hPa 0,0 l/m N 0,00 h 0 W/m 0,1 km/h (0 Bft)
06.05.2016 22:00 12,9 C 64 % 1010,8 hPa 0,0 l/m N 0,00 h 0 W/m 0,7 km/h (0 Bft)
06.05.2016 23:00 12,4 C 67 % 1010,6 hPa 0,0 l/m O 0,00 h 0 W/m 1,3 km/h (1 Bft)
07.05.2016 00:00 11,2 C 73 % 1010,7 hPa 0,0 l/m N 0,00 h 0 W/m 0,0 km/h (0 Bft)
07.05.2016 01:00 10,1 C 79 % 1010,6 hPa 0,0 l/m N 0,00 h 0 W/m 0,3 km/h (0 Bft)
07.05.2016 02:00 8,9 C 84 % 1010,4 hPa 0,0 l/m N 0,00 h 0 W/m 0,1 km/h (0 Bft)
07.05.2016 03:00 8,0 C 87 % 1010,2 hPa 0,0 l/m N 0,00 h 0 W/m 0,3 km/h (0 Bft)
07.05.2016 04:00 7,5 C 88 % 1010,2 hPa 0,0 l/m N 0,00 h 0 W/m 0,0 km/h (0 Bft)
07.05.2016 05:00 6,6 C 92 % 1010,1 hPa 0,0 l/m N 0,00 h 5 W/m 0,1 km/h (0 Bft)
07.05.2016 06:00 7,0 C 92 % 1010,0 hPa 0,0 l/m N 0,08 h 31 W/m 0,5 km/h (0 Bft)
07.05.2016 07:00 9,9 C 85 % 1010,0 hPa 0,0 l/m N 0,50 h 149 W/m 0,0 km/h (0 Bft)
07.05.2016 08:00 12,7 C 73 % 1010,1 hPa 0,0 l/m N 1,00 h 331 W/m 0,0 km/h (0 Bft)
07.05.2016 09:00 15,5 C 62 % 1010,1 hPa 0,0 l/m O 1,00 h 498 W/m 2,7 km/h (1 Bft)
07.05.2016 10:00 17,6 C 53 % 1009,8 hPa 0,0 l/m O 1,00 h 645 W/m 6,3 km/h (2 Bft)
07.05.2016 11:00 19,5 C 41 % 1009,5 hPa 0,0 l/m S-SW 1,00 h 773 W/m 10,1 km/h (2 Bft)
07.05.2016 12:00 20,8 C 34 % 1009,0 hPa 0,0 l/m S-SO 1,00 h 854 W/m 8,9 km/h (2 Bft)
07.05.2016 13:00 21,9 C 33 % 1008,6 hPa 0,0 l/m O-SO 1,00 h 879 W/m 10,9 km/h (2 Bft)
07.05.2016 14:00 23,0 C 32 % 1008,1 hPa 0,0 l/m O-SO 0,92 h 781 W/m 14,5 km/h (3 Bft)
07.05.2016 15:00 23,5 C 31 % 1007,5 hPa 0,0 l/m O-SO 0,83 h 704 W/m 19,3 km/h (3 Bft)
07.05.2016 16:00 23,0 C 34 % 1007,0 hPa 0,0 l/m O 0,58 h 487 W/m 17,6 km/h (3 Bft)
07.05.2016 17:00 22,6 C 36 % 1006,7 hPa 0,0 l/m O-SO 0,75 h 449 W/m 17,0 km/h (3 Bft)
07.05.2016 18:00 21,7 C 39 % 1006,4 hPa 0,0 l/m O 0,17 h 110 W/m 15,2 km/h (3 Bft)
07.05.2016 19:00 20,9 C 41 % 1006,4 hPa 0,0 l/m O 0,58 h 122 W/m 14,2 km/h (3 Bft)
07.05.2016 20:00 19,4 C 45 % 1006,6 hPa 0,0 l/m O-NO 0,00 h 16 W/m 8,2 km/h (2 Bft)
07.05.2016 21:00 18,1 C 46 % 1007,4 hPa 0,0 l/m O-NO 0,00 h 0 W/m 9,4 km/h (2 Bft)
07.05.2016 22:00 15,7 C 60 % 1008,1 hPa 0,0 l/m SW 0,00 h 0 W/m 7,2 km/h (2 Bft)
07.05.2016 23:00 13,2 C 71 % 1008,1 hPa 0,0 l/m N 0,00 h 0 W/m 0,1 km/h (0 Bft)
08.05.2016 00:00 11,8 C 77 % 1008,1 hPa 0,0 l/m N 0,00 h 0 W/m 0,8 km/h (0 Bft)
08.05.2016 01:00 10,5 C 81 % 1008,4 hPa 0,0 l/m N 0,00 h 0 W/m 0,5 km/h (0 Bft)
08.05.2016 02:00 9,7 C 83 % 1008,2 hPa 0,0 l/m N 0,00 h 0 W/m 0,0 km/h (0 Bft)
08.05.2016 03:00 9,5 C 79 % 1008,2 hPa 0,0 l/m N 0,00 h 0 W/m 0,4 km/h (0 Bft)
08.05.2016 04:00 8,7 C 80 % 1008,3 hPa 0,0 l/m SO 0,00 h 0 W/m 0,8 km/h (0 Bft)
08.05.2016 05:00 8,2 C 82 % 1008,3 hPa 0,0 l/m N 0,00 h 5 W/m 0,4 km/h (0 Bft)
08.05.2016 06:00 8,0 C 85 % 1008,4 hPa 0,0 l/m N 0,00 h 24 W/m 0,3 km/h (0 Bft)
08.05.2016 07:00 9,7 C 80 % 1008,8 hPa 0,0 l/m O 0,50 h 144 W/m 2,9 km/h (1 Bft)
08.05.2016 08:00 12,3 C 73 % 1008,9 hPa 0,0 l/m O 1,00 h 321 W/m 5,2 km/h (1 Bft)
08.05.2016 09:00 14,9 C 66 % 1008,9 hPa 0,0 l/m O 1,00 h 492 W/m 5,3 km/h (1 Bft)
08.05.2016 10:00 17,3 C 59 % 1008,8 hPa 0,0 l/m O-NO 1,00 h 645 W/m 7,5 km/h (2 Bft)
08.05.2016 11:00 19,6 C 47 % 1008,5 hPa 0,0 l/m O-NO 1,00 h 761 W/m 10,2 km/h (2 Bft)
08.05.2016 12:00 21,2 C 42 % 1008,1 hPa 0,0 l/m O-NO 1,00 h 841 W/m 14,6 km/h (3 Bft)
08.05.2016 13:00 22,0 C 39 % 1008,0 hPa 0,0 l/m O-SO 1,00 h 870 W/m 17,8 km/h (3 Bft)
08.05.2016 14:00 22,9 C 38 % 1007,7 hPa 0,0 l/m O 0,92 h 824 W/m 18,9 km/h (3 Bft)
08.05.2016 15:00 23,0 C 39 % 1007,4 hPa 0,0 l/m O 0,67 h 629 W/m 22,0 km/h (4 Bft)
08.05.2016 16:00 19,7 C 44 % 1007,6 hPa 0,0 l/m W-SW 0,00 h 31 W/m 14,2 km/h (3 Bft)
08.05.2016 17:00 15,5 C 69 % 1007,4 hPa 1,6 l/m N-NW 0,00 h 64 W/m 17,7 km/h (3 Bft)
08.05.2016 18:00 14,9 C 77 % 1007,8 hPa 0,0 l/m W-SW 0,00 h 28 W/m 17,0 km/h (3 Bft)
08.05.2016 19:00 13,9 C 77 % 1008,9 hPa 0,8 l/m W-SW 0,00 h 8 W/m 19,8 km/h (4 Bft)
08.05.2016 20:00 14,1 C 76 % 1008,8 hPa 2,0 l/m O-SO 0,00 h 5 W/m 16,8 km/h (3 Bft)
08.05.2016 21:00 13,7 C 77 % 1009,8 hPa 0,4 l/m S-SW 0,00 h 0 W/m 13,9 km/h (3 Bft)
08.05.2016 22:00 12,7 C 84 % 1009,4 hPa 0,2 l/m SO 0,00 h 0 W/m 7,2 km/h (2 Bft)
08.05.2016 23:00 11,0 C 90 % 1008,9 hPa 0,2 l/m N 0,00 h 0 W/m 1,3 km/h (1 Bft)
Min-Datum _ 05.05.16 07.05.16 07.05.16 - - - - 02.05.16
_ Min-Zeit 06:15 14:50 19:40 - - - - 00:00
Minimum _ 1,8 C 30 % 1006,3 hPa - - - - 0,0 km/h (0 Bft)
Max-Datum _ 07.05.16 03.05.16 04.05.16 08.05.16 - 02.05.16 04.05.16 08.05.16
_ Max-Zeit 15:40 07:45 07:45 20:10 - 07:50 14:20 17:10
Maximum _ 23,9 C 100 % 1026,2 hPa 2,0 l/m - 0,08 h 1028 W/m 43,5 km/h
N-NW (6 Bft)
Durchschnitt _ 11,6 C 71 % 1016,4 hPa #6,8 l/m O #61:01 h 381 W/m 8,2 km/h (2 Bft)